Time;durP1;ratioP1;P1;durP2;ratioP2;P2;SDS_P1;SDS_P2;PMS_P1;PMS_P2;Temp;Humidity;BMP_temperature;BMP_pressure;BME280_temperature;BME280_humidity;BME280_pressure;Samples;Min_cycle;Max_cycle;Signal;HPM_P1;HPM_P2
2022/10/10 04:00:13;;;;;;;7.30;1.10;;;6.90;99.90;;;;;;6190049;22;21038;31
2022/10/10 04:02:41;;;;;;;1.90;1.90;;;6.90;99.90;;;;;;6244403;23;20186;-68
2022/10/10 04:05:08;;;;;;;2.92;2.50;;;6.90;99.90;;;;;;6244374;23;20486;-67
2022/10/10 04:07:35;;;;;;;4.35;1.08;;;6.90;99.90;;;;;;6243925;23;20198;-68
2022/10/10 04:10:02;;;;;;;1.35;1.35;;;6.90;99.90;;;;;;6244565;23;20254;-68
2022/10/10 04:12:28;;;;;;;1.35;1.33;;;6.90;99.90;;;;;;6244917;23;20202;-68
2022/10/10 04:14:55;;;;;;;1.55;1.45;;;6.90;99.90;;;;;;6244310;23;20190;-68
2022/10/10 04:17:21;;;;;;;1.35;1.20;;;6.90;99.90;;;;;;6243477;22;20214;-70
2022/10/10 04:19:51;;;;;;;2.90;2.70;;;6.90;99.90;;;;;;6243947;23;20275;-70
2022/10/10 04:22:18;;;;;;;1.60;1.58;;;6.80;99.90;;;;;;6244115;23;20184;-73
2022/10/10 04:24:44;;;;;;;0.68;0.65;;;6.80;99.90;;;;;;6244559;23;20208;-70
2022/10/10 04:27:11;;;;;;;1.45;1.25;;;6.80;99.90;;;;;;6244295;22;20205;-70
2022/10/10 04:29:38;;;;;;;1.23;1.15;;;6.80;99.90;;;;;;6244888;23;20174;-70
2022/10/10 04:32:06;;;;;;;9.82;2.22;;;6.80;99.90;;;;;;6244170;23;20186;-70
2022/10/10 04:34:33;;;;;;;1.38;1.38;;;6.70;99.90;;;;;;6243702;23;20186;-70
2022/10/10 04:37:01;;;;;;;1.55;1.52;;;6.70;99.90;;;;;;6243621;22;20205;-69
2022/10/10 04:39:28;;;;;;;2.15;2.05;;;6.70;99.90;;;;;;6244389;23;20189;-69
2022/10/10 04:41:55;;;;;;;1.17;0.90;;;6.80;99.90;;;;;;6244289;23;20189;-70
2022/10/10 04:44:22;;;;;;;1.65;1.65;;;6.70;99.90;;;;;;6243762;23;20522;-71
2022/10/10 04:46:48;;;;;;;1.15;0.90;;;6.70;99.90;;;;;;6243860;22;20255;-69
2022/10/10 04:49:15;;;;;;;1.65;1.55;;;6.70;99.90;;;;;;6243519;23;20293;-70
2022/10/10 04:51:42;;;;;;;1.23;1.23;;;6.70;99.90;;;;;;6243703;23;20506;-70
2022/10/10 04:54:10;;;;;;;2.08;1.63;;;6.70;99.90;;;;;;6244041;23;20186;-71
2022/10/10 04:56:36;;;;;;;1.63;1.42;;;6.70;99.90;;;;;;6243965;22;20201;-70
2022/10/10 04:59:05;;;;;;;1.13;1.13;;;6.70;99.90;;;;;;6244382;23;20183;-70
2022/10/10 05:01:31;;;;;;;0.98;0.95;;;6.70;99.90;;;;;;6243736;23;20197;-70
2022/10/10 05:03:58;;;;;;;2.40;1.85;;;6.70;99.90;;;;;;6244056;23;20269;-70
2022/10/10 05:06:25;;;;;;;1.98;1.95;;;6.70;99.90;;;;;;6244101;22;20503;-70
2022/10/10 05:08:52;;;;;;;2.95;1.48;;;6.60;99.90;;;;;;6246321;23;20187;-70
2022/10/10 05:11:20;;;;;;;1.42;1.23;;;6.60;99.90;;;;;;6247016;23;20179;-70
2022/10/10 05:13:48;;;;;;;1.10;1.10;;;6.60;99.90;;;;;;6247841;23;20178;-70
2022/10/10 05:16:15;;;;;;;7.05;2.08;;;6.60;99.90;;;;;;6252826;22;20210;-72
2022/10/10 05:18:42;;;;;;;2.78;1.90;;;6.70;99.90;;;;;;6250018;23;20181;-70
2022/10/10 05:21:10;;;;;;;2.72;2.58;;;6.70;99.90;;;;;;6244348;23;20197;-69
2022/10/10 05:23:37;;;;;;;2.30;2.10;;;6.70;99.90;;;;;;6244113;23;20183;-71
2022/10/10 05:26:04;;;;;;;5.38;3.08;;;6.70;99.90;;;;;;6245874;22;20205;-69
2022/10/10 05:28:34;;;;;;;8.43;2.83;;;6.70;99.90;;;;;;6245370;23;20190;-69
2022/10/10 05:31:01;;;;;;;1.55;1.55;;;6.70;99.90;;;;;;6244700;23;20228;-70
2022/10/10 05:33:27;;;;;;;2.15;2.05;;;6.70;99.90;;;;;;6243933;23;20189;-71
2022/10/10 05:36:01;;;;;;;2.45;2.17;;;6.60;99.90;;;;;;6245921;22;20532;-70
2022/10/10 05:38:28;;;;;;;1.55;1.55;;;6.60;99.90;;;;;;6242991;23;20166;-70
2022/10/10 05:40:55;;;;;;;1.85;1.75;;;6.70;99.90;;;;;;6243486;23;20232;-70
2022/10/10 05:43:22;;;;;;;1.58;1.30;;;6.60;99.90;;;;;;6242951;23;20189;-70
2022/10/10 05:45:50;;;;;;;1.75;1.75;;;6.60;99.90;;;;;;6243196;22;20238;-71
2022/10/10 05:48:17;;;;;;;1.30;1.30;;;6.70;99.90;;;;;;6243692;23;20182;-71
2022/10/10 05:50:47;;;;;;;4.47;2.17;;;6.70;99.90;;;;;;6252766;23;20506;-71
2022/10/10 05:53:14;;;;;;;2.85;2.60;;;6.70;99.90;;;;;;6242910;23;20219;-71
2022/10/10 05:55:42;;;;;;;6.53;2.40;;;6.70;99.90;;;;;;6243111;22;20183;-71
2022/10/10 05:58:08;;;;;;;8.25;2.35;;;6.70;99.90;;;;;;6253176;23;20617;-71
2022/10/10 06:00:35;;;;;;;2.40;1.90;;;6.70;99.90;;;;;;6243092;23;20289;-69
2022/10/10 06:03:04;;;;;;;1.92;1.80;;;6.70;99.90;;;;;;6243022;23;20190;-71
2022/10/10 06:05:30;;;;;;;1.85;1.75;;;6.70;99.90;;;;;;6242929;22;20488;-71
2022/10/10 06:07:57;;;;;;;6.47;1.63;;;6.70;99.90;;;;;;6242897;23;20190;-71
2022/10/10 06:10:24;;;;;;;4.22;3.80;;;6.80;99.90;;;;;;6243181;23;20461;-71
2022/10/10 06:12:51;;;;;;;2.38;2.28;;;6.80;99.90;;;;;;6242156;23;20228;-71
2022/10/10 06:15:18;;;;;;;7.43;4.30;;;6.80;99.90;;;;;;6243373;23;20490;-72
2022/10/10 06:17:44;;;;;;;3.30;2.90;;;6.80;99.90;;;;;;6242860;22;20699;-71
2022/10/10 06:20:12;;;;;;;1.75;1.73;;;6.90;99.90;;;;;;6242375;23;20213;-71
2022/10/10 06:22:39;;;;;;;2.63;2.50;;;6.90;99.90;;;;;;6242429;23;20515;-70
2022/10/10 06:25:06;;;;;;;5.60;2.15;;;6.90;99.90;;;;;;6243223;23;20492;-72
2022/10/10 06:27:33;;;;;;;4.57;4.28;;;6.90;99.90;;;;;;6242924;22;20202;-72
2022/10/10 06:29:59;;;;;;;2.10;2.00;;;6.90;99.90;;;;;;6243092;23;20178;-69
2022/10/10 06:32:26;;;;;;;3.15;3.05;;;7.00;99.90;;;;;;6243024;23;20183;-69
2022/10/10 06:34:53;;;;;;;3.47;2.22;;;7.00;99.90;;;;;;6242064;23;20220;-69
2022/10/10 06:37:21;;;;;;;3.78;2.75;;;7.10;99.90;;;;;;6242564;22;20222;-69
2022/10/10 06:39:47;;;;;;;4.65;2.53;;;7.10;99.90;;;;;;6243312;23;20193;-69
2022/10/10 06:42:14;;;;;;;2.70;2.53;;;7.10;99.90;;;;;;6243043;23;20479;-70
2022/10/10 06:44:41;;;;;;;3.38;3.10;;;7.20;99.90;;;;;;6243098;23;20194;-69
2022/10/10 06:47:10;;;;;;;3.65;1.95;;;7.20;99.90;;;;;;6243056;22;20210;-69
2022/10/10 06:49:36;;;;;;;2.15;2.05;;;7.20;99.90;;;;;;6243441;23;20178;-70
2022/10/10 06:52:03;;;;;;;4.57;2.00;;;7.30;99.90;;;;;;6242706;23;20186;-69
2022/10/10 06:54:31;;;;;;;3.80;2.65;;;7.40;99.90;;;;;;6242687;23;20205;-70
2022/10/10 06:56:58;;;;;;;6.07;2.60;;;7.40;99.90;;;;;;6242608;22;20470;-70
2022/10/10 06:59:25;;;;;;;1.50;1.50;;;7.40;99.90;;;;;;6243061;23;20178;-70
2022/10/10 07:01:51;;;;;;;3.35;3.15;;;7.50;99.90;;;;;;6242700;23;20277;-69
2022/10/10 07:04:18;;;;;;;4.13;3.83;;;7.60;99.90;;;;;;6242279;23;20261;-70
2022/10/10 07:06:45;;;;;;;1.75;1.65;;;7.60;99.90;;;;;;6242377;22;20535;-70
2022/10/10 07:09:11;;;;;;;3.10;2.90;;;7.70;99.90;;;;;;6242739;23;20178;-68
2022/10/10 07:11:44;;;;;;;1.15;1.15;;;7.80;99.90;;;;;;6242644;23;20202;-69
2022/10/10 07:14:10;;;;;;;2.70;2.60;;;7.80;99.90;;;;;;6242436;23;20171;-69
2022/10/10 07:16:37;;;;;;;3.83;3.35;;;7.90;99.90;;;;;;6242657;22;20217;-71
2022/10/10 07:19:04;;;;;;;2.35;2.25;;;8.00;99.90;;;;;;6243367;23;20201;-70
2022/10/10 07:21:31;;;;;;;2.58;2.35;;;8.00;99.90;;;;;;6241878;23;20249;-69
2022/10/10 07:23:58;;;;;;;4.60;4.20;;;8.10;99.90;;;;;;6242733;23;20183;-69
2022/10/10 07:26:29;;;;;;;3.00;2.80;;;8.10;99.90;;;;;;6243705;22;20680;-70
2022/10/10 07:28:57;;;;;;;3.80;3.50;;;8.20;99.90;;;;;;6244786;23;20608;-69
2022/10/10 07:31:24;;;;;;;2.08;1.98;;;8.30;99.90;;;;;;6244792;23;20186;-69
2022/10/10 07:33:51;;;;;;;3.40;3.10;;;8.40;99.90;;;;;;6245059;23;20187;-69
2022/10/10 07:36:18;;;;;;;2.97;2.78;;;8.50;99.90;;;;;;6244040;22;20202;-70
2022/10/10 07:38:48;;;;;;;3.15;2.95;;;8.60;99.90;;;;;;6245104;23;20180;-70
2022/10/10 07:41:15;;;;;;;1.92;1.83;;;8.60;99.90;;;;;;6244441;23;20187;-71
2022/10/10 07:43:42;;;;;;;4.07;2.22;;;8.60;99.90;;;;;;6244728;23;20184;-70
2022/10/10 07:46:15;;;;;;;3.60;3.30;;;8.70;99.90;;;;;;6244831;22;20211;-69
2022/10/10 07:48:42;;;;;;;2.83;2.70;;;8.70;99.90;;;;;;6245412;23;20167;-71
2022/10/10 07:51:09;;;;;;;2.42;2.28;;;8.80;99.90;;;;;;6244340;23;20178;-70
2022/10/10 07:53:36;;;;;;;3.13;2.90;;;8.90;99.90;;;;;;6243952;23;20203;-70
2022/10/10 07:56:04;;;;;;;12.13;4.43;;;9.30;99.90;;;;;;6244375;22;20203;-70
2022/10/10 07:58:31;;;;;;;3.72;3.10;;;9.90;99.90;;;;;;6244597;23;20184;-70
2022/10/10 08:01:02;;;;;;;2.78;2.70;;;10.20;99.90;;;;;;6244559;23;20268;-71
2022/10/10 08:03:30;;;;;;;1.70;1.58;;;10.10;99.90;;;;;;6244052;23;20608;-70
2022/10/10 08:05:57;;;;;;;1.83;1.83;;;10.00;99.90;;;;;;6243389;22;20214;-70
2022/10/10 08:08:23;;;;;;;2.80;2.20;;;10.00;99.90;;;;;;6244025;23;20180;-70
2022/10/10 08:10:50;;;;;;;2.00;1.90;;;9.90;99.90;;;;;;6244375;23;20188;-70
2022/10/10 08:13:17;;;;;;;2.05;1.35;;;10.00;99.90;;;;;;6244034;23;20184;-70
2022/10/10 08:15:44;;;;;;;2.35;2.25;;;10.00;99.90;;;;;;6243780;22;20182;-70
2022/10/10 08:18:10;;;;;;;1.73;1.73;;;10.10;99.90;;;;;;6244264;23;20628;-70
2022/10/10 08:20:38;;;;;;;2.20;1.58;;;10.10;99.90;;;;;;6243861;23;20180;-70
2022/10/10 08:23:05;;;;;;;1.58;1.58;;;10.20;99.90;;;;;;6243416;23;20805;-70
2022/10/10 08:25:32;;;;;;;1.10;1.10;;;10.30;99.90;;;;;;6243794;22;20501;-70
2022/10/10 08:27:58;;;;;;;2.40;2.20;;;10.40;99.90;;;;;;6244304;23;20271;-70
2022/10/10 08:30:25;;;;;;;1.90;1.80;;;10.60;99.90;;;;;;6243676;23;20180;-70
2022/10/10 08:32:51;;;;;;;3.72;1.65;;;10.60;99.90;;;;;;6244077;23;20184;-69
2022/10/10 08:35:18;;;;;;;3.15;1.77;;;10.70;99.90;;;;;;6243644;23;20188;-70
2022/10/10 08:37:46;;;;;;;5.15;1.80;;;10.80;99.90;;;;;;6243387;22;20204;-70
2022/10/10 08:40:15;;;;;;;1.98;1.88;;;10.90;99.90;;;;;;6243811;23;20613;-70
2022/10/10 08:42:46;;;;;;;1.92;1.80;;;11.00;99.90;;;;;;6243406;23;20697;-70
2022/10/10 08:45:18;;;;;;;9.57;1.60;;;11.00;99.90;;;;;;6244178;23;20169;-71
2022/10/10 08:47:49;;;;;;;1.67;1.55;;;11.10;99.90;;;;;;6243580;22;20697;-70
2022/10/10 08:50:21;;;;;;;5.35;1.50;;;11.30;99.90;;;;;;6243289;23;20478;-70
2022/10/10 08:52:54;;;;;;;1.80;1.80;;;11.30;99.90;;;;;;6242973;23;20192;-70
2022/10/10 08:55:26;;;;;;;1.85;1.15;;;11.30;99.90;;;;;;6244148;23;20178;-70
2022/10/10 08:57:57;;;;;;;1.67;1.67;;;11.40;99.90;;;;;;6244546;23;20435;-69
2022/10/10 09:00:31;;;;;;;3.40;2.10;;;11.40;99.90;;;;;;6244142;23;20509;-70
2022/10/10 09:03:00;;;;;;;1.55;1.33;;;11.40;99.90;;;;;;6253801;23;20583;-71
2022/10/10 09:05:43;;;;;;;1.58;1.48;;;11.60;99.90;;;;;;6243596;23;20185;-71
2022/10/10 09:08:28;;;;;;;5.10;0.98;;;11.70;99.90;;;;;;6243642;23;20474;-70
2022/10/10 09:10:59;;;;;;;1.02;0.90;;;11.70;99.90;;;;;;6243601;23;20185;-69
2022/10/10 09:13:33;;;;;;;3.50;0.73;;;11.80;99.90;;;;;;6243575;23;20549;-71
2022/10/10 09:16:02;;;;;;;1.20;1.20;;;11.90;99.90;;;;;;6243584;22;20237;-70
2022/10/10 09:18:47;;;;;;;0.97;0.63;;;11.90;99.90;;;;;;6245259;23;20178;-71
2022/10/10 09:21:17;;;;;;;1.80;1.73;;;12.00;99.90;;;;;;6243649;23;20753;-72
2022/10/10 09:23:51;;;;;;;1.85;1.23;;;12.20;99.90;;;;;;6255851;23;20506;-71
2022/10/10 09:26:23;;;;;;;0.90;0.90;;;12.30;99.90;;;;;;6249593;22;20204;-70
2022/10/10 09:28:53;;;;;;;0.83;0.83;;;12.30;99.90;;;;;;6251303;23;20405;-70
2022/10/10 09:31:26;;;;;;;1.70;0.80;;;12.40;99.90;;;;;;6253513;23;20409;-72
2022/10/10 09:33:57;;;;;;;1.57;1.47;;;12.40;99.90;;;;;;6257724;23;20469;-70
2022/10/10 09:36:29;;;;;;;0.60;0.60;;;12.50;99.90;;;;;;6254740;22;20438;-69
2022/10/10 09:39:00;;;;;;;0.63;0.63;;;12.60;99.90;;;;;;6245654;23;20406;-70
2022/10/10 09:41:33;;;;;;;0.90;0.90;;;12.60;99.90;;;;;;6253274;23;20430;-70
2022/10/10 09:44:04;;;;;;;1.10;1.10;;;12.70;99.90;;;;;;6243418;23;20434;-70
2022/10/10 09:46:31;;;;;;;0.83;0.80;;;12.80;99.90;;;;;;6243315;22;20465;-69
2022/10/10 09:48:57;;;;;;;3.33;1.70;;;12.90;99.90;;;;;;6243538;23;20536;-69
2022/10/10 09:51:24;;;;;;;2.10;2.10;;;13.10;99.90;;;;;;6241573;23;20888;-70
2022/10/10 09:53:51;;;;;;;1.20;1.20;;;13.20;99.90;;;;;;6243077;23;20426;-69
2022/10/10 09:56:22;;;;;;;1.27;1.13;;;13.40;99.90;;;;;;6243268;22;20442;-69
2022/10/10 09:58:51;;;;;;;1.57;1.57;;;13.40;99.90;;;;;;6243364;23;20849;-69
2022/10/10 10:01:20;;;;;;;0.80;0.80;;;13.50;99.90;;;;;;6243124;23;20423;-70
2022/10/10 10:04:06;;;;;;;1.23;1.03;;;13.70;99.90;;;;;;6243381;23;20424;-70
2022/10/10 10:06:33;;;;;;;1.43;0.87;;;13.80;99.90;;;;;;6242334;22;20443;-69
2022/10/10 10:09:01;;;;;;;1.37;1.27;;;13.90;99.90;;;;;;6243232;23;20970;-70
2022/10/10 10:11:33;;;;;;;0.53;0.53;;;13.90;99.90;;;;;;6243001;23;20425;-69
2022/10/10 10:14:01;;;;;;;2.33;0.90;;;13.90;99.90;;;;;;6243133;23;20420;-72
2022/10/10 10:16:33;;;;;;;0.63;0.63;;;14.00;99.90;;;;;;6241656;22;20448;-69
2022/10/10 10:19:00;;;;;;;1.17;1.17;;;14.10;99.90;;;;;;6213212;23;20412;-68
2022/10/10 10:21:28;;;;;;;1.80;0.73;;;14.10;99.90;;;;;;6212404;23;20448;-70
2022/10/10 10:23:58;;;;;;;1.03;1.03;;;14.30;99.90;;;;;;6212503;23;20424;-69
2022/10/10 10:26:27;;;;;;;4.27;0.80;;;14.30;99.90;;;;;;6212659;23;20450;-69
2022/10/10 10:28:57;;;;;;;0.70;0.70;;;14.50;99.90;;;;;;6213147;23;20432;-71
2022/10/10 10:31:47;;;;;;;1.20;1.20;;;14.60;99.90;;;;;;6212740;23;20424;-71
2022/10/10 10:34:26;;;;;;;1.43;1.43;;;14.50;99.90;;;;;;6212191;23;20431;-68
2022/10/10 10:37:01;;;;;;;0.40;0.40;;;14.50;99.90;;;;;;6212072;23;20450;-68
2022/10/10 10:39:42;;;;;;;4.53;1.20;;;14.50;99.90;;;;;;6213039;23;20458;-68
2022/10/10 10:42:18;;;;;;;0.90;0.90;;;14.70;99.90;;;;;;6212354;23;20756;-68
2022/10/10 10:44:52;;;;;;;0.70;0.70;;;14.90;99.90;;;;;;6212578;23;20780;-69
2022/10/10 10:47:29;;;;;;;1.77;1.73;;;15.00;99.90;;;;;;6212698;23;20445;-69
2022/10/10 10:50:08;;;;;;;0.60;0.60;;;15.00;99.90;;;;;;6212481;23;20407;-70
2022/10/10 10:52:52;;;;;;;0.80;0.80;;;15.00;99.90;;;;;;6211581;23;20401;-67
2022/10/10 10:55:27;;;;;;;1.10;1.00;;;15.00;99.90;;;;;;6212159;23;20408;-69
2022/10/10 10:58:07;;;;;;;1.90;1.20;;;15.10;99.90;;;;;;6212414;23;20938;-68
2022/10/10 11:00:45;;;;;;;1.13;0.93;;;15.20;99.90;;;;;;6212503;23;20405;-69
2022/10/10 11:03:25;;;;;;;1.07;1.07;;;15.20;99.90;;;;;;6211819;23;20432;-69
2022/10/10 11:06:02;;;;;;;0.60;0.60;;;15.20;99.90;;;;;;6211819;23;20420;-70
2022/10/10 11:08:43;;;;;;;0.70;0.70;;;15.30;99.90;;;;;;6211905;23;20815;-68
2022/10/10 11:11:21;;;;;;;1.60;0.90;;;15.30;99.90;;;;;;6212106;23;20406;-70
2022/10/10 11:13:56;;;;;;;2.17;2.07;;;15.40;99.90;;;;;;6212675;23;20438;-69
2022/10/10 11:16:29;;;;;;;0.60;0.60;;;15.50;99.90;;;;;;6212596;23;20716;-70
2022/10/10 11:19:07;;;;;;;0.73;0.73;;;15.50;99.90;;;;;;6212875;23;20415;-68
2022/10/10 11:21:41;;;;;;;0.87;0.87;;;15.60;99.90;;;;;;6212099;23;20415;-69
2022/10/10 11:24:13;;;;;;;0.70;0.70;;;15.60;99.90;;;;;;6212756;23;20405;-70
2022/10/10 11:26:46;;;;;;;0.60;0.60;;;15.60;99.90;;;;;;6212608;23;20445;-68
2022/10/10 11:29:18;;;;;;;1.47;1.47;;;15.70;99.90;;;;;;6212696;23;20417;-68
2022/10/10 11:31:53;;;;;;;0.93;0.93;;;15.90;99.90;;;;;;6212936;23;20438;-70
2022/10/10 11:34:24;;;;;;;0.77;0.67;;;15.90;99.90;;;;;;6211967;23;20855;-69
2022/10/10 11:36:55;;;;;;;1.10;1.10;;;15.90;99.90;;;;;;6212057;23;20443;-69
2022/10/10 11:39:26;;;;;;;0.87;0.87;;;15.90;99.90;;;;;;6211970;23;20856;-69
2022/10/10 11:41:57;;;;;;;1.20;1.20;;;15.90;99.90;;;;;;6212344;23;20464;-68
2022/10/10 11:44:31;;;;;;;1.30;1.30;;;15.90;99.90;;;;;;6212766;23;20514;-68
2022/10/10 11:47:06;;;;;;;1.10;1.10;;;16.00;99.90;;;;;;6212556;23;20448;-69
2022/10/10 11:49:37;;;;;;;0.60;0.60;;;16.10;99.90;;;;;;6212144;23;20821;-70
2022/10/10 11:52:18;;;;;;;0.90;0.90;;;16.10;99.90;;;;;;6211952;23;20403;-68
2022/10/10 11:54:51;;;;;;;1.40;1.30;;;16.20;99.90;;;;;;6212437;23;20409;-68
2022/10/10 11:57:23;;;;;;;0.67;0.67;;;16.30;99.90;;;;;;6211947;23;20452;-69
2022/10/10 11:59:53;;;;;;;1.27;1.27;;;16.30;99.90;;;;;;6212265;23;20513;-68
2022/10/10 12:02:30;;;;;;;1.00;0.90;;;16.30;99.90;;;;;;6221905;23;20446;-70
2022/10/10 12:04:57;;;;;;;1.33;0.80;;;16.20;99.90;;;;;;6211709;23;20409;-70
2022/10/10 12:07:28;;;;;;;1.13;1.13;;;16.20;99.90;;;;;;6211440;23;20447;-69
2022/10/10 12:09:59;;;;;;;2.00;1.30;;;16.30;99.90;;;;;;6212402;23;20405;-69
2022/10/10 12:12:29;;;;;;;0.90;0.90;;;16.40;99.90;;;;;;6213543;23;20406;-70
2022/10/10 12:15:00;;;;;;;0.80;0.80;;;16.40;99.90;;;;;;6213981;23;20427;-70
2022/10/10 12:17:32;;;;;;;1.07;1.07;;;16.50;99.90;;;;;;6213720;23;20451;-69
2022/10/10 12:20:10;;;;;;;4.20;0.80;;;16.50;99.90;;;;;;6214027;23;20632;-70
2022/10/10 12:22:37;;;;;;;0.80;0.80;;;16.50;99.90;;;;;;6213709;23;20781;-69
2022/10/10 12:25:26;;;;;;;1.80;1.10;;;16.60;99.90;;;;;;6213926;23;20517;-70
2022/10/10 12:28:06;;;;;;;1.70;1.20;;;16.70;99.90;;;;;;6213527;23;20473;-69
2022/10/10 12:30:32;;;;;;;0.57;0.57;;;16.80;99.90;;;;;;6213896;23;20731;-69
2022/10/10 12:33:01;;;;;;;0.73;0.73;;;16.80;99.90;;;;;;6213662;23;20423;-70
2022/10/10 12:35:34;;;;;;;0.90;0.50;;;16.80;99.90;;;;;;6213213;23;20861;-70
2022/10/10 12:38:19;;;;;;;0.60;0.60;;;16.80;99.90;;;;;;6212809;23;20814;-70
2022/10/10 12:41:11;;;;;;;0.73;0.73;;;16.80;99.90;;;;;;6214097;23;20429;-69
2022/10/10 12:44:08;;;;;;;0.90;0.90;;;16.90;99.90;;;;;;6184182;23;20516;-68
2022/10/10 12:46:35;;;;;;;0.80;0.80;;;17.00;99.90;;;;;;6212087;23;20418;-69
2022/10/10 12:49:13;;;;;;;0.70;0.70;;;16.90;99.90;;;;;;6213759;23;20917;-68
2022/10/10 12:51:42;;;;;;;1.90;1.20;;;17.00;99.90;;;;;;6213034;23;20490;-70
2022/10/10 12:54:22;;;;;;;0.67;0.67;;;17.10;99.90;;;;;;6213674;23;20482;-70
2022/10/10 12:56:53;;;;;;;2.63;0.90;;;17.10;99.90;;;;;;6213724;23;20439;-69
2022/10/10 12:59:24;;;;;;;1.90;1.17;;;17.10;99.90;;;;;;6213621;23;20413;-69
2022/10/10 13:01:54;;;;;;;1.50;1.40;;;17.00;99.90;;;;;;6213937;23;20420;-67
2022/10/10 13:04:23;;;;;;;1.33;1.33;;;17.10;99.90;;;;;;6213508;23;20419;-69
2022/10/10 13:06:54;;;;;;;1.20;1.20;;;17.10;99.90;;;;;;6213199;23;20490;-68
2022/10/10 13:09:23;;;;;;;1.20;1.20;;;17.10;99.90;;;;;;6213486;23;20438;-70
2022/10/10 13:11:55;;;;;;;2.83;2.67;;;17.10;99.90;;;;;;6214144;23;20423;-69
2022/10/10 13:14:23;;;;;;;8.17;1.47;;;17.10;99.90;;;;;;6213762;23;20739;-69
2022/10/10 13:16:50;;;;;;;3.50;1.60;;;17.10;99.90;;;;;;6213645;23;20451;-72
2022/10/10 13:19:20;;;;;;;1.60;1.50;;;17.10;99.90;;;;;;6213538;23;20423;-70
2022/10/10 13:21:50;;;;;;;1.50;1.47;;;17.10;99.90;;;;;;6213718;23;20453;-69
2022/10/10 13:24:20;;;;;;;2.30;1.53;;;17.10;99.90;;;;;;6213697;23;20757;-72
2022/10/10 13:26:48;;;;;;;1.50;1.50;;;17.10;99.90;;;;;;6213992;23;20465;-70
2022/10/10 13:29:25;;;;;;;1.40;1.30;;;17.10;99.90;;;;;;6213833;23;20420;-69
2022/10/10 13:31:55;;;;;;;0.63;0.63;;;17.10;99.90;;;;;;6213722;23;20415;-70
2022/10/10 13:34:25;;;;;;;2.17;1.27;;;17.10;99.90;;;;;;6212389;23;20872;-70
2022/10/10 13:36:56;;;;;;;1.20;1.20;;;17.00;99.90;;;;;;6212439;23;20445;-69
2022/10/10 13:39:24;;;;;;;0.87;0.87;;;17.00;99.90;;;;;;6213627;23;20412;-67
2022/10/10 13:41:51;;;;;;;1.27;1.20;;;17.10;99.90;;;;;;6213084;23;20450;-69
2022/10/10 13:44:23;;;;;;;7.73;1.40;;;17.00;99.90;;;;;;6212993;23;20941;-69
2022/10/10 13:46:50;;;;;;;1.40;0.80;;;16.90;99.90;;;;;;6213018;23;20461;-68
2022/10/10 13:49:23;;;;;;;1.43;1.40;;;16.90;99.90;;;;;;6212466;23;20419;-69
2022/10/10 13:52:03;;;;;;;1.07;0.83;;;16.90;99.90;;;;;;6212672;23;20413;-69
2022/10/10 13:54:45;;;;;;;1.10;1.00;;;16.90;99.90;;;;;;6212764;23;20677;-68
2022/10/10 13:57:16;;;;;;;1.73;1.63;;;16.80;99.90;;;;;;6212988;23;20443;-69
2022/10/10 13:59:43;;;;;;;1.43;1.40;;;16.80;99.90;;;;;;6213222;23;20407;-69
2022/10/10 14:02:14;;;;;;;1.10;1.10;;;16.80;99.90;;;;;;6212989;23;20430;-69
2022/10/10 14:04:46;;;;;;;1.07;1.07;;;16.80;99.90;;;;;;6212272;23;20415;-71
2022/10/10 14:07:19;;;;;;;1.50;1.40;;;16.70;99.90;;;;;;6212627;23;20442;-73
2022/10/10 14:09:50;;;;;;;2.27;1.47;;;16.70;99.90;;;;;;6213300;23;20720;-70
2022/10/10 14:12:23;;;;;;;5.80;1.30;;;16.80;99.90;;;;;;6212617;23;20415;-72
2022/10/10 14:14:53;;;;;;;1.00;1.00;;;16.80;99.90;;;;;;6212732;23;20870;-71
2022/10/10 14:17:20;;;;;;;1.17;1.03;;;16.70;99.90;;;;;;6212398;23;20447;-70
2022/10/10 14:19:48;;;;;;;0.83;0.83;;;16.70;99.90;;;;;;6212471;23;20423;-69
2022/10/10 14:22:16;;;;;;;0.63;0.63;;;16.70;99.90;;;;;;6212632;23;20428;-68
2022/10/10 14:24:43;;;;;;;1.57;1.00;;;16.80;99.90;;;;;;6212589;23;20453;-69
2022/10/10 14:27:20;;;;;;;0.93;0.93;;;16.80;99.90;;;;;;6212534;23;20928;-70
2022/10/10 14:29:47;;;;;;;0.93;0.93;;;16.80;99.90;;;;;;6213228;23;20444;-70
2022/10/10 14:32:15;;;;;;;1.00;1.00;;;16.70;99.90;;;;;;6212167;23;20436;-69
2022/10/10 14:34:42;;;;;;;1.00;1.00;;;16.70;99.90;;;;;;6212041;23;20418;-70
2022/10/10 14:37:18;;;;;;;0.93;0.90;;;16.60;99.90;;;;;;6212290;23;20448;-69
2022/10/10 14:39:46;;;;;;;1.43;1.00;;;16.50;99.90;;;;;;6212654;23;20406;-69
2022/10/10 14:42:14;;;;;;;0.80;0.80;;;16.50;99.90;;;;;;6212490;23;20427;-69
2022/10/10 14:44:41;;;;;;;0.70;0.70;;;16.40;99.90;;;;;;6212378;23;20449;-69
2022/10/10 14:47:14;;;;;;;1.07;1.07;;;16.40;99.90;;;;;;6212579;23;20445;-71
2022/10/10 14:49:40;;;;;;;1.00;0.80;;;16.30;99.90;;;;;;6212278;23;20905;-69
2022/10/10 14:52:07;;;;;;;0.50;0.50;;;16.30;99.90;;;;;;6212266;23;20429;-70
2022/10/10 14:54:35;;;;;;;0.60;0.60;;;16.20;99.90;;;;;;6212341;23;20420;-69
2022/10/10 14:57:02;;;;;;;1.00;1.00;;;16.20;99.90;;;;;;6212491;23;20529;-69
2022/10/10 14:59:29;;;;;;;0.80;0.80;;;16.20;99.90;;;;;;6212548;23;20436;-69
2022/10/10 15:01:56;;;;;;;1.07;0.80;;;16.10;99.90;;;;;;6212533;23;20425;-69
2022/10/10 15:04:23;;;;;;;0.70;0.70;;;16.10;99.90;;;;;;6211642;23;20450;-68
2022/10/10 15:06:50;;;;;;;0.57;0.57;;;16.00;99.90;;;;;;6212342;23;20550;-69
2022/10/10 15:09:17;;;;;;;0.93;0.93;;;16.00;99.90;;;;;;6212656;23;20421;-69
2022/10/10 15:11:45;;;;;;;2.50;1.63;;;16.00;99.90;;;;;;6212346;23;20461;-68
2022/10/10 15:14:11;;;;;;;1.80;0.80;;;15.90;99.90;;;;;;6212193;23;20427;-69
2022/10/10 15:16:38;;;;;;;1.10;1.10;;;15.90;99.90;;;;;;6211959;23;20449;-69
2022/10/10 15:19:05;;;;;;;1.40;1.33;;;15.90;99.90;;;;;;6212662;23;20414;-69
2022/10/10 15:21:31;;;;;;;0.80;0.80;;;15.80;99.90;;;;;;6211226;23;20422;-69
2022/10/10 15:23:58;;;;;;;0.90;0.90;;;15.80;99.90;;;;;;6212561;23;20441;-70
2022/10/10 15:26:25;;;;;;;1.30;1.30;;;15.70;99.90;;;;;;6212319;23;20422;-69
2022/10/10 15:28:53;;;;;;;1.10;1.10;;;15.70;99.90;;;;;;6212652;23;20498;-69
2022/10/10 15:31:26;;;;;;;0.70;0.70;;;15.60;99.90;;;;;;6212301;23;20421;-69
2022/10/10 15:33:54;;;;;;;1.23;1.23;;;15.60;99.90;;;;;;6212253;23;20847;-70
2022/10/10 15:36:21;;;;;;;0.50;0.50;;;15.60;99.90;;;;;;6211041;23;20434;-70
2022/10/10 15:38:47;;;;;;;1.13;1.10;;;15.50;99.90;;;;;;6212469;23;20422;-68
2022/10/10 15:41:15;;;;;;;1.43;1.33;;;15.50;99.90;;;;;;6212033;23;20884;-67
2022/10/10 15:43:45;;;;;;;1.10;1.10;;;15.50;99.90;;;;;;6211922;23;20562;-67
2022/10/10 15:46:13;;;;;;;1.50;1.23;;;15.50;99.90;;;;;;6213017;23;20406;-67
2022/10/10 15:48:40;;;;;;;1.43;1.30;;;15.50;99.90;;;;;;6214116;23;20444;-67
2022/10/10 15:51:08;;;;;;;1.63;1.63;;;15.50;99.90;;;;;;6213671;23;20422;-69
2022/10/10 15:53:36;;;;;;;3.70;1.03;;;15.50;99.90;;;;;;6213397;23;20420;-68
2022/10/10 15:56:07;;;;;;;1.20;1.20;;;15.50;99.90;;;;;;6214310;23;20422;-68
2022/10/10 15:58:34;;;;;;;1.00;1.00;;;15.50;99.90;;;;;;6213876;23;20491;-69
2022/10/10 16:01:07;;;;;;;2.20;1.20;;;15.50;99.90;;;;;;6214158;23;20760;-69
2022/10/10 16:03:35;;;;;;;1.43;1.43;;;15.40;99.90;;;;;;6213416;23;20434;-69
2022/10/10 16:06:03;;;;;;;2.33;1.07;;;15.40;99.90;;;;;;6213070;23;20425;-69
2022/10/10 16:08:30;;;;;;;3.70;1.80;;;15.40;99.90;;;;;;6213279;23;20472;-69
2022/10/10 16:10:57;;;;;;;1.30;1.30;;;15.40;99.90;;;;;;6213799;23;20431;-67
2022/10/10 16:13:23;;;;;;;1.50;1.40;;;15.40;99.90;;;;;;6213717;23;20422;-68
2022/10/10 16:15:56;;;;;;;3.53;1.23;;;15.40;99.90;;;;;;6214104;23;20425;-69
2022/10/10 16:18:23;;;;;;;1.30;1.30;;;15.40;99.90;;;;;;6214312;23;20450;-68
2022/10/10 16:20:51;;;;;;;1.33;1.33;;;15.40;99.90;;;;;;6213234;23;20426;-68
2022/10/10 16:23:18;;;;;;;1.20;1.10;;;15.30;99.90;;;;;;6213143;23;20421;-68
2022/10/10 16:25:45;;;;;;;1.00;1.00;;;15.30;99.90;;;;;;6214116;23;20460;-68
2022/10/10 16:28:11;;;;;;;1.07;1.00;;;15.30;99.90;;;;;;6213888;23;20441;-68
2022/10/10 16:30:38;;;;;;;1.40;1.37;;;15.30;99.90;;;;;;6213631;23;20902;-68
2022/10/10 16:33:05;;;;;;;2.33;1.30;;;15.30;99.90;;;;;;6213689;23;20431;-68
2022/10/10 16:35:35;;;;;;;1.10;1.00;;;15.20;99.90;;;;;;6213533;23;20465;-70
2022/10/10 16:38:04;;;;;;;0.97;0.97;;;15.30;99.90;;;;;;6214045;23;20454;-69
2022/10/10 16:40:30;;;;;;;2.10;1.10;;;15.30;99.90;;;;;;6214286;23;20433;-69
2022/10/10 16:42:57;;;;;;;0.90;0.90;;;15.30;99.90;;;;;;6213475;23;20427;-69
2022/10/10 16:45:24;;;;;;;0.87;0.87;;;15.30;99.90;;;;;;6213835;23;20450;-69
2022/10/10 16:47:50;;;;;;;1.37;1.20;;;15.30;99.90;;;;;;6213490;23;20440;-69
2022/10/10 16:50:17;;;;;;;1.00;1.00;;;15.20;99.90;;;;;;6213794;23;20782;-69
2022/10/10 16:52:44;;;;;;;1.10;1.10;;;15.20;99.90;;;;;;6211500;23;20512;-69
2022/10/10 16:55:12;;;;;;;1.13;1.13;;;15.20;99.90;;;;;;6213597;23;20421;-69
2022/10/10 16:57:39;;;;;;;1.17;1.17;;;15.20;99.90;;;;;;6213333;23;20451;-69
2022/10/10 17:00:08;;;;;;;0.87;0.87;;;15.10;99.90;;;;;;6213855;23;20452;-69
2022/10/10 17:02:37;;;;;;;2.07;2.07;;;15.10;99.90;;;;;;6212969;23;20430;-69